sensor_id;sensor_type;location;lat;lon;timestamp;P1;durP1;ratioP1;P2;durP2;ratioP2
19341;SDS011;9807;48.258;12.690;2023-07-31T00:02:11;2.80;;;1.90;;
19341;SDS011;9807;48.258;12.690;2023-07-31T00:04:37;2.50;;;1.90;;
19341;SDS011;9807;48.258;12.690;2023-07-31T00:07:03;3.47;;;1.90;;
19341;SDS011;9807;48.258;12.690;2023-07-31T00:09:31;3.17;;;1.80;;
19341;SDS011;9807;48.258;12.690;2023-07-31T00:11:59;4.07;;;2.07;;
19341;SDS011;9807;48.258;12.690;2023-07-31T00:14:25;2.80;;;1.70;;
19341;SDS011;9807;48.258;12.690;2023-07-31T00:16:51;2.20;;;1.90;;
19341;SDS011;9807;48.258;12.690;2023-07-31T00:19:17;2.73;;;1.60;;
19341;SDS011;9807;48.258;12.690;2023-07-31T00:21:43;5.77;;;2.00;;
19341;SDS011;9807;48.258;12.690;2023-07-31T00:24:09;3.73;;;2.00;;
19341;SDS011;9807;48.258;12.690;2023-07-31T00:26:35;4.47;;;1.70;;
19341;SDS011;9807;48.258;12.690;2023-07-31T00:29:01;4.33;;;2.00;;
19341;SDS011;9807;48.258;12.690;2023-07-31T00:31:26;2.70;;;1.77;;
19341;SDS011;9807;48.258;12.690;2023-07-31T00:33:52;3.77;;;1.73;;
19341;SDS011;9807;48.258;12.690;2023-07-31T00:36:17;2.53;;;1.73;;
19341;SDS011;9807;48.258;12.690;2023-07-31T00:38:43;6.73;;;1.93;;
19341;SDS011;9807;48.258;12.690;2023-07-31T00:41:09;1.77;;;1.53;;
19341;SDS011;9807;48.258;12.690;2023-07-31T00:43:34;3.20;;;1.90;;
19341;SDS011;9807;48.258;12.690;2023-07-31T00:46:00;2.63;;;1.70;;
19341;SDS011;9807;48.258;12.690;2023-07-31T00:48:26;2.10;;;1.63;;
19341;SDS011;9807;48.258;12.690;2023-07-31T00:50:52;3.37;;;1.90;;
19341;SDS011;9807;48.258;12.690;2023-07-31T00:53:18;3.57;;;1.70;;
19341;SDS011;9807;48.258;12.690;2023-07-31T00:55:43;3.37;;;1.60;;
19341;SDS011;9807;48.258;12.690;2023-07-31T00:58:09;4.60;;;2.30;;
19341;SDS011;9807;48.258;12.690;2023-07-31T01:00:35;4.53;;;2.13;;
19341;SDS011;9807;48.258;12.690;2023-07-31T01:03:01;4.70;;;2.20;;
19341;SDS011;9807;48.258;12.690;2023-07-31T01:08:12;5.77;;;2.40;;
19341;SDS011;9807;48.258;12.690;2023-07-31T01:10:52;2.90;;;1.57;;
19341;SDS011;9807;48.258;12.690;2023-07-31T01:13:51;2.97;;;1.70;;
19341;SDS011;9807;48.258;12.690;2023-07-31T01:16:19;3.17;;;1.50;;
19341;SDS011;9807;48.258;12.690;2023-07-31T01:18:44;2.33;;;1.60;;
19341;SDS011;9807;48.258;12.690;2023-07-31T01:21:21;1.90;;;1.53;;
19341;SDS011;9807;48.258;12.690;2023-07-31T01:26:21;1.67;;;1.40;;
19341;SDS011;9807;48.258;12.690;2023-07-31T01:28:56;1.63;;;1.53;;
19341;SDS011;9807;48.258;12.690;2023-07-31T01:31:36;2.10;;;1.30;;
19341;SDS011;9807;48.258;12.690;2023-07-31T01:34:04;3.20;;;1.80;;
19341;SDS011;9807;48.258;12.690;2023-07-31T01:36:33;3.17;;;2.00;;
19341;SDS011;9807;48.258;12.690;2023-07-31T01:38:59;1.87;;;1.30;;
19341;SDS011;9807;48.258;12.690;2023-07-31T01:41:26;2.27;;;1.70;;
19341;SDS011;9807;48.258;12.690;2023-07-31T01:43:52;3.57;;;1.70;;
19341;SDS011;9807;48.258;12.690;2023-07-31T01:46:18;5.30;;;1.63;;
19341;SDS011;9807;48.258;12.690;2023-07-31T01:48:43;3.53;;;1.70;;
19341;SDS011;9807;48.258;12.690;2023-07-31T01:51:09;2.70;;;1.70;;
19341;SDS011;9807;48.258;12.690;2023-07-31T01:53:34;3.57;;;1.83;;
19341;SDS011;9807;48.258;12.690;2023-07-31T01:56:00;2.13;;;1.57;;
19341;SDS011;9807;48.258;12.690;2023-07-31T01:58:26;3.87;;;1.57;;
19341;SDS011;9807;48.258;12.690;2023-07-31T02:00:51;1.97;;;1.50;;
19341;SDS011;9807;48.258;12.690;2023-07-31T02:03:17;2.27;;;1.50;;
19341;SDS011;9807;48.258;12.690;2023-07-31T02:05:46;2.13;;;1.60;;
19341;SDS011;9807;48.258;12.690;2023-07-31T02:08:13;3.13;;;1.70;;
19341;SDS011;9807;48.258;12.690;2023-07-31T02:10:38;2.30;;;1.50;;
19341;SDS011;9807;48.258;12.690;2023-07-31T02:13:04;2.53;;;1.60;;
19341;SDS011;9807;48.258;12.690;2023-07-31T02:15:30;3.43;;;1.70;;
19341;SDS011;9807;48.258;12.690;2023-07-31T02:17:56;1.60;;;1.50;;
19341;SDS011;9807;48.258;12.690;2023-07-31T02:20:21;2.53;;;1.40;;
19341;SDS011;9807;48.258;12.690;2023-07-31T02:22:47;3.03;;;1.73;;
19341;SDS011;9807;48.258;12.690;2023-07-31T02:25:13;2.73;;;1.37;;
19341;SDS011;9807;48.258;12.690;2023-07-31T02:27:39;1.60;;;1.50;;
19341;SDS011;9807;48.258;12.690;2023-07-31T02:30:04;2.60;;;1.40;;
19341;SDS011;9807;48.258;12.690;2023-07-31T02:32:30;2.17;;;1.60;;
19341;SDS011;9807;48.258;12.690;2023-07-31T02:34:56;2.87;;;1.50;;
19341;SDS011;9807;48.258;12.690;2023-07-31T02:37:23;2.60;;;1.60;;
19341;SDS011;9807;48.258;12.690;2023-07-31T02:39:48;2.87;;;1.77;;
19341;SDS011;9807;48.258;12.690;2023-07-31T02:42:14;4.43;;;1.90;;
19341;SDS011;9807;48.258;12.690;2023-07-31T02:44:43;3.40;;;1.93;;
19341;SDS011;9807;48.258;12.690;2023-07-31T02:47:08;3.00;;;1.80;;
19341;SDS011;9807;48.258;12.690;2023-07-31T02:49:34;3.43;;;1.70;;
19341;SDS011;9807;48.258;12.690;2023-07-31T02:52:00;3.00;;;1.80;;
19341;SDS011;9807;48.258;12.690;2023-07-31T02:54:25;3.23;;;1.43;;
19341;SDS011;9807;48.258;12.690;2023-07-31T02:56:51;2.10;;;1.60;;
19341;SDS011;9807;48.258;12.690;2023-07-31T02:59:17;2.30;;;1.70;;
19341;SDS011;9807;48.258;12.690;2023-07-31T03:01:43;3.07;;;1.57;;
19341;SDS011;9807;48.258;12.690;2023-07-31T03:04:09;2.33;;;1.30;;
19341;SDS011;9807;48.258;12.690;2023-07-31T03:06:35;3.30;;;1.90;;
19341;SDS011;9807;48.258;12.690;2023-07-31T03:09:00;2.43;;;1.50;;
19341;SDS011;9807;48.258;12.690;2023-07-31T03:11:26;2.13;;;1.50;;
19341;SDS011;9807;48.258;12.690;2023-07-31T03:13:52;2.90;;;1.57;;
19341;SDS011;9807;48.258;12.690;2023-07-31T03:16:17;2.10;;;1.73;;
19341;SDS011;9807;48.258;12.690;2023-07-31T03:18:43;1.50;;;1.40;;
19341;SDS011;9807;48.258;12.690;2023-07-31T03:21:09;7.23;;;2.20;;
19341;SDS011;9807;48.258;12.690;2023-07-31T03:23:34;3.13;;;1.73;;
19341;SDS011;9807;48.258;12.690;2023-07-31T03:26:01;2.90;;;1.67;;
19341;SDS011;9807;48.258;12.690;2023-07-31T03:28:28;1.93;;;1.57;;
19341;SDS011;9807;48.258;12.690;2023-07-31T03:30:54;2.47;;;1.70;;
19341;SDS011;9807;48.258;12.690;2023-07-31T03:33:20;3.30;;;1.67;;
19341;SDS011;9807;48.258;12.690;2023-07-31T03:35:46;2.73;;;1.80;;
19341;SDS011;9807;48.258;12.690;2023-07-31T03:38:12;3.13;;;1.70;;
19341;SDS011;9807;48.258;12.690;2023-07-31T03:40:39;3.90;;;1.90;;
19341;SDS011;9807;48.258;12.690;2023-07-31T03:43:05;9.33;;;2.30;;
19341;SDS011;9807;48.258;12.690;2023-07-31T03:45:30;1.80;;;1.70;;
19341;SDS011;9807;48.258;12.690;2023-07-31T03:47:56;2.20;;;1.70;;
19341;SDS011;9807;48.258;12.690;2023-07-31T03:50:22;2.37;;;1.70;;
19341;SDS011;9807;48.258;12.690;2023-07-31T03:52:50;1.77;;;1.33;;
19341;SDS011;9807;48.258;12.690;2023-07-31T03:55:15;2.67;;;1.50;;
19341;SDS011;9807;48.258;12.690;2023-07-31T03:57:41;2.60;;;1.60;;
19341;SDS011;9807;48.258;12.690;2023-07-31T04:00:07;2.60;;;1.70;;
19341;SDS011;9807;48.258;12.690;2023-07-31T04:02:33;3.40;;;1.50;;
19341;SDS011;9807;48.258;12.690;2023-07-31T04:04:58;3.40;;;1.67;;
19341;SDS011;9807;48.258;12.690;2023-07-31T04:07:24;2.43;;;1.43;;
19341;SDS011;9807;48.258;12.690;2023-07-31T04:09:50;2.80;;;1.80;;
19341;SDS011;9807;48.258;12.690;2023-07-31T04:12:15;1.90;;;1.70;;
19341;SDS011;9807;48.258;12.690;2023-07-31T04:14:41;1.80;;;1.30;;
19341;SDS011;9807;48.258;12.690;2023-07-31T04:17:06;3.07;;;1.70;;
19341;SDS011;9807;48.258;12.690;2023-07-31T04:19:32;4.90;;;1.80;;
19341;SDS011;9807;48.258;12.690;2023-07-31T04:21:58;3.80;;;1.80;;
19341;SDS011;9807;48.258;12.690;2023-07-31T04:24:23;4.17;;;1.83;;
19341;SDS011;9807;48.258;12.690;2023-07-31T04:26:52;2.77;;;1.63;;
19341;SDS011;9807;48.258;12.690;2023-07-31T04:29:18;5.80;;;1.90;;
19341;SDS011;9807;48.258;12.690;2023-07-31T04:31:44;4.33;;;1.60;;
19341;SDS011;9807;48.258;12.690;2023-07-31T04:34:10;3.07;;;1.73;;
19341;SDS011;9807;48.258;12.690;2023-07-31T04:36:36;2.70;;;1.50;;
19341;SDS011;9807;48.258;12.690;2023-07-31T04:39:02;1.50;;;1.33;;
19341;SDS011;9807;48.258;12.690;2023-07-31T04:41:28;2.00;;;1.37;;
19341;SDS011;9807;48.258;12.690;2023-07-31T04:43:54;2.97;;;1.50;;
19341;SDS011;9807;48.258;12.690;2023-07-31T04:46:19;3.37;;;1.50;;
19341;SDS011;9807;48.258;12.690;2023-07-31T04:48:45;3.43;;;1.57;;
19341;SDS011;9807;48.258;12.690;2023-07-31T04:51:11;2.03;;;1.40;;
19341;SDS011;9807;48.258;12.690;2023-07-31T04:53:36;3.73;;;1.60;;
19341;SDS011;9807;48.258;12.690;2023-07-31T04:56:02;4.87;;;1.90;;
19341;SDS011;9807;48.258;12.690;2023-07-31T04:58:28;2.07;;;1.43;;
19341;SDS011;9807;48.258;12.690;2023-07-31T05:00:56;1.60;;;1.40;;
19341;SDS011;9807;48.258;12.690;2023-07-31T05:03:22;7.23;;;2.37;;
19341;SDS011;9807;48.258;12.690;2023-07-31T05:05:48;6.60;;;2.10;;
19341;SDS011;9807;48.258;12.690;2023-07-31T05:08:14;5.70;;;1.97;;
19341;SDS011;9807;48.258;12.690;2023-07-31T05:10:42;3.20;;;1.90;;
19341;SDS011;9807;48.258;12.690;2023-07-31T05:13:08;1.93;;;1.73;;
19341;SDS011;9807;48.258;12.690;2023-07-31T05:15:33;2.80;;;1.50;;
19341;SDS011;9807;48.258;12.690;2023-07-31T05:17:59;3.83;;;1.70;;
19341;SDS011;9807;48.258;12.690;2023-07-31T05:20:27;3.70;;;2.20;;
19341;SDS011;9807;48.258;12.690;2023-07-31T05:22:53;8.70;;;3.30;;
19341;SDS011;9807;48.258;12.690;2023-07-31T05:25:18;8.53;;;3.00;;
19341;SDS011;9807;48.258;12.690;2023-07-31T05:27:44;5.67;;;3.00;;
19341;SDS011;9807;48.258;12.690;2023-07-31T05:30:13;6.97;;;3.20;;
19341;SDS011;9807;48.258;12.690;2023-07-31T05:32:38;8.87;;;3.40;;
19341;SDS011;9807;48.258;12.690;2023-07-31T05:35:04;4.60;;;3.07;;
19341;SDS011;9807;48.258;12.690;2023-07-31T05:37:30;7.60;;;3.20;;
19341;SDS011;9807;48.258;12.690;2023-07-31T05:39:56;9.37;;;3.40;;
19341;SDS011;9807;48.258;12.690;2023-07-31T05:42:21;5.87;;;3.13;;
19341;SDS011;9807;48.258;12.690;2023-07-31T05:44:47;6.30;;;2.90;;
19341;SDS011;9807;48.258;12.690;2023-07-31T05:47:13;8.60;;;3.30;;
19341;SDS011;9807;48.258;12.690;2023-07-31T05:49:38;4.77;;;2.80;;
19341;SDS011;9807;48.258;12.690;2023-07-31T05:52:04;6.00;;;3.20;;
19341;SDS011;9807;48.258;12.690;2023-07-31T05:54:31;10.00;;;3.20;;
19341;SDS011;9807;48.258;12.690;2023-07-31T05:56:57;12.70;;;4.57;;
19341;SDS011;9807;48.258;12.690;2023-07-31T05:59:23;9.00;;;3.07;;
19341;SDS011;9807;48.258;12.690;2023-07-31T06:01:49;5.67;;;2.93;;
19341;SDS011;9807;48.258;12.690;2023-07-31T06:04:14;3.57;;;2.20;;
19341;SDS011;9807;48.258;12.690;2023-07-31T06:06:42;4.87;;;2.73;;
19341;SDS011;9807;48.258;12.690;2023-07-31T06:09:08;3.63;;;2.37;;
19341;SDS011;9807;48.258;12.690;2023-07-31T06:11:34;4.37;;;2.30;;
19341;SDS011;9807;48.258;12.690;2023-07-31T06:13:59;5.27;;;2.83;;
19341;SDS011;9807;48.258;12.690;2023-07-31T06:16:25;5.17;;;3.13;;
19341;SDS011;9807;48.258;12.690;2023-07-31T06:18:52;4.63;;;2.70;;
19341;SDS011;9807;48.258;12.690;2023-07-31T06:21:17;3.37;;;2.07;;
19341;SDS011;9807;48.258;12.690;2023-07-31T06:23:43;6.97;;;2.67;;
19341;SDS011;9807;48.258;12.690;2023-07-31T06:26:09;6.03;;;2.30;;
19341;SDS011;9807;48.258;12.690;2023-07-31T06:28:34;5.57;;;3.13;;
19341;SDS011;9807;48.258;12.690;2023-07-31T06:31:00;7.77;;;2.60;;
19341;SDS011;9807;48.258;12.690;2023-07-31T06:33:26;8.43;;;2.70;;
19341;SDS011;9807;48.258;12.690;2023-07-31T06:35:53;4.77;;;2.77;;
19341;SDS011;9807;48.258;12.690;2023-07-31T06:38:22;5.63;;;2.50;;
19341;SDS011;9807;48.258;12.690;2023-07-31T06:40:49;6.23;;;2.50;;
19341;SDS011;9807;48.258;12.690;2023-07-31T06:43:14;7.30;;;2.93;;
19341;SDS011;9807;48.258;12.690;2023-07-31T06:45:40;5.80;;;2.40;;
19341;SDS011;9807;48.258;12.690;2023-07-31T06:48:06;6.83;;;2.80;;
19341;SDS011;9807;48.258;12.690;2023-07-31T06:50:32;6.57;;;2.60;;
19341;SDS011;9807;48.258;12.690;2023-07-31T06:52:58;10.90;;;2.70;;
19341;SDS011;9807;48.258;12.690;2023-07-31T06:55:24;6.20;;;2.40;;
19341;SDS011;9807;48.258;12.690;2023-07-31T06:57:50;5.87;;;2.37;;
19341;SDS011;9807;48.258;12.690;2023-07-31T07:00:19;6.77;;;2.40;;
19341;SDS011;9807;48.258;12.690;2023-07-31T07:02:49;6.03;;;2.53;;
19341;SDS011;9807;48.258;12.690;2023-07-31T07:05:15;9.93;;;2.60;;
19341;SDS011;9807;48.258;12.690;2023-07-31T07:07:42;6.40;;;2.30;;
19341;SDS011;9807;48.258;12.690;2023-07-31T07:10:08;8.37;;;2.83;;
19341;SDS011;9807;48.258;12.690;2023-07-31T07:12:34;4.20;;;2.50;;
19341;SDS011;9807;48.258;12.690;2023-07-31T07:15:00;3.43;;;2.17;;
19341;SDS011;9807;48.258;12.690;2023-07-31T07:17:27;7.03;;;3.33;;
19341;SDS011;9807;48.258;12.690;2023-07-31T07:19:54;8.77;;;2.70;;
19341;SDS011;9807;48.258;12.690;2023-07-31T07:22:21;4.20;;;2.20;;
19341;SDS011;9807;48.258;12.690;2023-07-31T07:24:47;2.63;;;2.13;;
19341;SDS011;9807;48.258;12.690;2023-07-31T07:27:12;8.07;;;2.43;;
19341;SDS011;9807;48.258;12.690;2023-07-31T07:29:38;4.87;;;2.13;;
19341;SDS011;9807;48.258;12.690;2023-07-31T07:32:04;4.60;;;2.20;;
19341;SDS011;9807;48.258;12.690;2023-07-31T07:34:30;4.73;;;1.70;;
19341;SDS011;9807;48.258;12.690;2023-07-31T07:36:58;6.43;;;2.10;;
19341;SDS011;9807;48.258;12.690;2023-07-31T07:39:24;4.70;;;1.77;;
19341;SDS011;9807;48.258;12.690;2023-07-31T07:41:50;4.83;;;2.10;;
19341;SDS011;9807;48.258;12.690;2023-07-31T07:44:15;3.63;;;1.70;;
19341;SDS011;9807;48.258;12.690;2023-07-31T07:46:41;7.57;;;1.83;;
19341;SDS011;9807;48.258;12.690;2023-07-31T07:49:07;5.33;;;1.90;;
19341;SDS011;9807;48.258;12.690;2023-07-31T07:51:32;5.37;;;1.90;;
19341;SDS011;9807;48.258;12.690;2023-07-31T07:53:58;6.83;;;2.23;;
19341;SDS011;9807;48.258;12.690;2023-07-31T07:56:27;4.00;;;1.93;;
19341;SDS011;9807;48.258;12.690;2023-07-31T07:58:53;6.63;;;2.00;;
19341;SDS011;9807;48.258;12.690;2023-07-31T08:01:19;4.90;;;1.87;;
19341;SDS011;9807;48.258;12.690;2023-07-31T08:03:45;6.77;;;2.17;;
19341;SDS011;9807;48.258;12.690;2023-07-31T08:06:15;3.50;;;1.90;;
19341;SDS011;9807;48.258;12.690;2023-07-31T08:08:40;3.87;;;2.03;;
19341;SDS011;9807;48.258;12.690;2023-07-31T08:11:06;2.30;;;1.60;;
19341;SDS011;9807;48.258;12.690;2023-07-31T08:13:32;6.60;;;1.80;;
19341;SDS011;9807;48.258;12.690;2023-07-31T08:15:57;5.90;;;1.90;;
19341;SDS011;9807;48.258;12.690;2023-07-31T08:18:23;3.33;;;1.80;;
19341;SDS011;9807;48.258;12.690;2023-07-31T08:20:48;4.57;;;1.70;;
19341;SDS011;9807;48.258;12.690;2023-07-31T08:23:14;3.03;;;1.90;;
19341;SDS011;9807;48.258;12.690;2023-07-31T08:25:40;4.30;;;2.10;;
19341;SDS011;9807;48.258;12.690;2023-07-31T08:28:06;2.57;;;1.50;;
19341;SDS011;9807;48.258;12.690;2023-07-31T08:30:32;6.10;;;1.80;;
19341;SDS011;9807;48.258;12.690;2023-07-31T08:32:59;4.93;;;1.93;;
19341;SDS011;9807;48.258;12.690;2023-07-31T08:35:25;4.67;;;1.87;;
19341;SDS011;9807;48.258;12.690;2023-07-31T08:37:53;3.30;;;1.97;;
19341;SDS011;9807;48.258;12.690;2023-07-31T08:40:18;3.87;;;2.00;;
19341;SDS011;9807;48.258;12.690;2023-07-31T08:42:45;4.73;;;2.10;;
19341;SDS011;9807;48.258;12.690;2023-07-31T08:45:15;3.33;;;1.80;;
19341;SDS011;9807;48.258;12.690;2023-07-31T08:47:46;2.30;;;1.60;;
19341;SDS011;9807;48.258;12.690;2023-07-31T08:50:13;7.57;;;2.03;;
19341;SDS011;9807;48.258;12.690;2023-07-31T08:52:39;5.27;;;2.03;;
19341;SDS011;9807;48.258;12.690;2023-07-31T08:55:06;5.07;;;1.80;;
19341;SDS011;9807;48.258;12.690;2023-07-31T08:57:33;4.17;;;1.80;;
19341;SDS011;9807;48.258;12.690;2023-07-31T09:00:00;8.13;;;2.10;;
19341;SDS011;9807;48.258;12.690;2023-07-31T09:02:31;6.67;;;2.00;;
19341;SDS011;9807;48.258;12.690;2023-07-31T09:05:07;4.83;;;1.70;;
19341;SDS011;9807;48.258;12.690;2023-07-31T09:07:34;3.57;;;1.80;;
19341;SDS011;9807;48.258;12.690;2023-07-31T09:10:01;6.40;;;2.23;;
19341;SDS011;9807;48.258;12.690;2023-07-31T09:12:27;3.70;;;2.20;;
19341;SDS011;9807;48.258;12.690;2023-07-31T09:14:53;4.10;;;1.90;;
19341;SDS011;9807;48.258;12.690;2023-07-31T09:17:32;6.53;;;2.30;;
19341;SDS011;9807;48.258;12.690;2023-07-31T09:20:05;3.33;;;2.10;;
19341;SDS011;9807;48.258;12.690;2023-07-31T09:22:40;4.70;;;2.23;;
19341;SDS011;9807;48.258;12.690;2023-07-31T09:25:14;5.60;;;2.20;;
19341;SDS011;9807;48.258;12.690;2023-07-31T09:27:50;3.53;;;1.87;;
19341;SDS011;9807;48.258;12.690;2023-07-31T09:30:19;3.87;;;1.97;;
19341;SDS011;9807;48.258;12.690;2023-07-31T09:32:47;2.33;;;1.80;;
19341;SDS011;9807;48.258;12.690;2023-07-31T09:35:18;5.03;;;2.00;;
19341;SDS011;9807;48.258;12.690;2023-07-31T09:37:55;4.60;;;2.30;;
19341;SDS011;9807;48.258;12.690;2023-07-31T09:42:58;3.40;;;2.20;;
19341;SDS011;9807;48.258;12.690;2023-07-31T09:45:28;5.93;;;2.40;;
19341;SDS011;9807;48.258;12.690;2023-07-31T09:47:55;3.60;;;2.30;;
19341;SDS011;9807;48.258;12.690;2023-07-31T09:50:22;4.17;;;2.20;;
19341;SDS011;9807;48.258;12.690;2023-07-31T09:52:50;6.07;;;2.10;;
19341;SDS011;9807;48.258;12.690;2023-07-31T09:55:19;6.63;;;2.20;;
19341;SDS011;9807;48.258;12.690;2023-07-31T09:57:46;5.43;;;2.33;;
19341;SDS011;9807;48.258;12.690;2023-07-31T10:00:13;3.70;;;2.43;;
19341;SDS011;9807;48.258;12.690;2023-07-31T10:02:41;4.87;;;2.47;;
19341;SDS011;9807;48.258;12.690;2023-07-31T10:05:08;6.03;;;2.30;;
19341;SDS011;9807;48.258;12.690;2023-07-31T10:07:37;3.83;;;2.43;;
19341;SDS011;9807;48.258;12.690;2023-07-31T10:10:07;3.00;;;2.20;;
19341;SDS011;9807;48.258;12.690;2023-07-31T10:12:34;6.77;;;2.20;;
19341;SDS011;9807;48.258;12.690;2023-07-31T10:15:01;4.20;;;2.50;;
19341;SDS011;9807;48.258;12.690;2023-07-31T10:17:27;6.10;;;2.20;;
19341;SDS011;9807;48.258;12.690;2023-07-31T10:19:55;3.63;;;2.50;;
19341;SDS011;9807;48.258;12.690;2023-07-31T10:22:24;6.73;;;2.50;;
19341;SDS011;9807;48.258;12.690;2023-07-31T10:24:50;4.40;;;2.30;;
19341;SDS011;9807;48.258;12.690;2023-07-31T10:27:19;3.30;;;1.97;;
19341;SDS011;9807;48.258;12.690;2023-07-31T10:29:45;5.83;;;2.20;;
19341;SDS011;9807;48.258;12.690;2023-07-31T10:32:13;6.40;;;2.97;;
19341;SDS011;9807;48.258;12.690;2023-07-31T10:34:40;6.00;;;2.00;;
19341;SDS011;9807;48.258;12.690;2023-07-31T10:37:19;4.10;;;2.20;;
19341;SDS011;9807;48.258;12.690;2023-07-31T10:39:54;3.07;;;2.13;;
19341;SDS011;9807;48.258;12.690;2023-07-31T10:42:38;7.53;;;2.37;;
19341;SDS011;9807;48.258;12.690;2023-07-31T10:45:24;9.67;;;2.63;;
19341;SDS011;9807;48.258;12.690;2023-07-31T10:47:58;7.13;;;2.20;;
19341;SDS011;9807;48.258;12.690;2023-07-31T10:50:29;3.80;;;2.20;;
19341;SDS011;9807;48.258;12.690;2023-07-31T10:52:59;3.83;;;2.17;;
19341;SDS011;9807;48.258;12.690;2023-07-31T10:58:11;3.03;;;1.87;;
19341;SDS011;9807;48.258;12.690;2023-07-31T11:00:38;5.63;;;2.07;;
19341;SDS011;9807;48.258;12.690;2023-07-31T11:05:50;3.27;;;2.00;;
19341;SDS011;9807;48.258;12.690;2023-07-31T11:08:22;5.33;;;2.13;;
19341;SDS011;9807;48.258;12.690;2023-07-31T11:13:26;3.80;;;2.07;;
19341;SDS011;9807;48.258;12.690;2023-07-31T11:15:56;7.00;;;2.27;;
19341;SDS011;9807;48.258;12.690;2023-07-31T11:18:26;4.67;;;2.30;;
19341;SDS011;9807;48.258;12.690;2023-07-31T11:20:52;4.73;;;2.27;;
19341;SDS011;9807;48.258;12.690;2023-07-31T11:23:19;3.63;;;2.00;;
19341;SDS011;9807;48.258;12.690;2023-07-31T11:25:45;3.30;;;1.90;;
19341;SDS011;9807;48.258;12.690;2023-07-31T11:28:13;5.33;;;2.30;;
19341;SDS011;9807;48.258;12.690;2023-07-31T11:30:39;5.73;;;2.30;;
19341;SDS011;9807;48.258;12.690;2023-07-31T11:33:07;3.23;;;2.20;;
19341;SDS011;9807;48.258;12.690;2023-07-31T11:35:35;3.00;;;2.17;;
19341;SDS011;9807;48.258;12.690;2023-07-31T11:38:06;3.80;;;2.03;;
19341;SDS011;9807;48.258;12.690;2023-07-31T11:40:40;4.37;;;2.03;;
19341;SDS011;9807;48.258;12.690;2023-07-31T11:43:07;6.17;;;2.30;;
19341;SDS011;9807;48.258;12.690;2023-07-31T11:45:32;3.47;;;2.07;;
19341;SDS011;9807;48.258;12.690;2023-07-31T11:48:00;3.83;;;2.23;;
19341;SDS011;9807;48.258;12.690;2023-07-31T11:50:26;4.40;;;2.23;;
19341;SDS011;9807;48.258;12.690;2023-07-31T11:53:03;4.00;;;2.20;;
19341;SDS011;9807;48.258;12.690;2023-07-31T11:55:32;4.00;;;2.20;;
19341;SDS011;9807;48.258;12.690;2023-07-31T11:57:58;5.00;;;2.40;;
19341;SDS011;9807;48.258;12.690;2023-07-31T12:00:25;4.93;;;2.17;;
19341;SDS011;9807;48.258;12.690;2023-07-31T12:02:51;4.63;;;2.40;;
19341;SDS011;9807;48.258;12.690;2023-07-31T12:05:18;4.73;;;2.40;;
19341;SDS011;9807;48.258;12.690;2023-07-31T12:07:50;3.73;;;2.20;;
19341;SDS011;9807;48.258;12.690;2023-07-31T12:10:24;3.97;;;2.50;;
19341;SDS011;9807;48.258;12.690;2023-07-31T12:13:05;3.53;;;2.07;;
19341;SDS011;9807;48.258;12.690;2023-07-31T12:15:42;5.37;;;2.10;;
19341;SDS011;9807;48.258;12.690;2023-07-31T12:18:13;3.00;;;2.13;;
19341;SDS011;9807;48.258;12.690;2023-07-31T12:20:41;4.93;;;2.23;;
19341;SDS011;9807;48.258;12.690;2023-07-31T12:23:12;4.43;;;2.33;;
19341;SDS011;9807;48.258;12.690;2023-07-31T12:26:09;3.70;;;2.47;;
19341;SDS011;9807;48.258;12.690;2023-07-31T12:28:40;4.03;;;2.30;;
19341;SDS011;9807;48.258;12.690;2023-07-31T12:31:10;3.53;;;2.30;;
19341;SDS011;9807;48.258;12.690;2023-07-31T12:33:48;4.10;;;2.33;;
19341;SDS011;9807;48.258;12.690;2023-07-31T12:36:18;3.93;;;2.10;;
19341;SDS011;9807;48.258;12.690;2023-07-31T12:38:47;3.70;;;2.30;;
19341;SDS011;9807;48.258;12.690;2023-07-31T12:41:13;4.63;;;2.20;;
19341;SDS011;9807;48.258;12.690;2023-07-31T12:43:39;8.33;;;2.40;;
19341;SDS011;9807;48.258;12.690;2023-07-31T12:46:07;4.27;;;2.17;;
19341;SDS011;9807;48.258;12.690;2023-07-31T12:48:34;6.57;;;2.37;;
19341;SDS011;9807;48.258;12.690;2023-07-31T12:51:00;3.67;;;2.43;;
19341;SDS011;9807;48.258;12.690;2023-07-31T12:53:26;4.67;;;2.17;;
19341;SDS011;9807;48.258;12.690;2023-07-31T12:55:52;7.50;;;2.27;;
19341;SDS011;9807;48.258;12.690;2023-07-31T12:58:18;4.73;;;2.27;;
19341;SDS011;9807;48.258;12.690;2023-07-31T13:00:43;5.77;;;2.03;;
19341;SDS011;9807;48.258;12.690;2023-07-31T13:03:09;4.80;;;2.13;;
19341;SDS011;9807;48.258;12.690;2023-07-31T13:05:35;6.80;;;2.27;;
19341;SDS011;9807;48.258;12.690;2023-07-31T13:08:01;6.80;;;2.20;;
19341;SDS011;9807;48.258;12.690;2023-07-31T13:10:27;3.47;;;2.23;;
19341;SDS011;9807;48.258;12.690;2023-07-31T13:12:53;3.83;;;2.23;;
19341;SDS011;9807;48.258;12.690;2023-07-31T13:15:20;2.90;;;2.10;;
19341;SDS011;9807;48.258;12.690;2023-07-31T13:17:45;5.23;;;2.63;;
19341;SDS011;9807;48.258;12.690;2023-07-31T13:20:11;4.37;;;2.10;;
19341;SDS011;9807;48.258;12.690;2023-07-31T13:22:37;3.17;;;2.10;;
19341;SDS011;9807;48.258;12.690;2023-07-31T13:25:03;2.83;;;2.00;;
19341;SDS011;9807;48.258;12.690;2023-07-31T13:27:29;4.53;;;2.50;;
19341;SDS011;9807;48.258;12.690;2023-07-31T13:29:54;7.27;;;2.43;;
19341;SDS011;9807;48.258;12.690;2023-07-31T13:32:20;4.10;;;2.10;;
19341;SDS011;9807;48.258;12.690;2023-07-31T13:34:49;3.77;;;2.23;;
19341;SDS011;9807;48.258;12.690;2023-07-31T13:37:14;4.03;;;2.23;;
19341;SDS011;9807;48.258;12.690;2023-07-31T13:39:43;3.57;;;2.27;;
19341;SDS011;9807;48.258;12.690;2023-07-31T13:42:09;5.33;;;1.93;;
19341;SDS011;9807;48.258;12.690;2023-07-31T13:44:37;5.97;;;2.37;;
19341;SDS011;9807;48.258;12.690;2023-07-31T13:47:03;3.50;;;2.10;;
19341;SDS011;9807;48.258;12.690;2023-07-31T13:49:29;3.77;;;2.00;;
19341;SDS011;9807;48.258;12.690;2023-07-31T13:51:55;6.17;;;2.17;;
19341;SDS011;9807;48.258;12.690;2023-07-31T13:54:22;4.87;;;1.93;;
19341;SDS011;9807;48.258;12.690;2023-07-31T13:56:48;4.77;;;2.43;;
19341;SDS011;9807;48.258;12.690;2023-07-31T13:59:14;4.43;;;2.40;;
19341;SDS011;9807;48.258;12.690;2023-07-31T14:01:41;6.53;;;2.23;;
19341;SDS011;9807;48.258;12.690;2023-07-31T14:04:08;3.13;;;2.10;;
19341;SDS011;9807;48.258;12.690;2023-07-31T14:06:33;5.60;;;2.33;;
19341;SDS011;9807;48.258;12.690;2023-07-31T14:08:59;7.13;;;2.30;;
19341;SDS011;9807;48.258;12.690;2023-07-31T14:11:25;4.30;;;2.43;;
19341;SDS011;9807;48.258;12.690;2023-07-31T14:13:51;4.87;;;2.03;;
19341;SDS011;9807;48.258;12.690;2023-07-31T14:16:17;4.33;;;2.00;;
19341;SDS011;9807;48.258;12.690;2023-07-31T14:18:43;4.97;;;2.40;;
19341;SDS011;9807;48.258;12.690;2023-07-31T14:21:10;3.20;;;2.27;;
19341;SDS011;9807;48.258;12.690;2023-07-31T14:23:36;5.53;;;2.40;;
19341;SDS011;9807;48.258;12.690;2023-07-31T14:26:02;6.63;;;2.67;;
19341;SDS011;9807;48.258;12.690;2023-07-31T14:28:28;3.57;;;2.00;;
19341;SDS011;9807;48.258;12.690;2023-07-31T14:30:53;5.93;;;2.40;;
19341;SDS011;9807;48.258;12.690;2023-07-31T14:33:21;4.77;;;2.20;;
19341;SDS011;9807;48.258;12.690;2023-07-31T14:35:47;5.40;;;2.03;;
19341;SDS011;9807;48.258;12.690;2023-07-31T14:38:13;3.33;;;2.30;;
19341;SDS011;9807;48.258;12.690;2023-07-31T14:40:38;4.93;;;2.00;;
19341;SDS011;9807;48.258;12.690;2023-07-31T14:43:04;7.10;;;2.60;;
19341;SDS011;9807;48.258;12.690;2023-07-31T14:45:30;3.57;;;2.27;;
19341;SDS011;9807;48.258;12.690;2023-07-31T14:47:55;6.37;;;2.07;;
19341;SDS011;9807;48.258;12.690;2023-07-31T14:50:21;4.30;;;2.30;;
19341;SDS011;9807;48.258;12.690;2023-07-31T14:52:48;2.40;;;1.73;;
19341;SDS011;9807;48.258;12.690;2023-07-31T14:55:14;3.07;;;1.93;;
19341;SDS011;9807;48.258;12.690;2023-07-31T14:57:40;3.07;;;1.93;;
19341;SDS011;9807;48.258;12.690;2023-07-31T15:00:06;5.17;;;2.37;;
19341;SDS011;9807;48.258;12.690;2023-07-31T15:02:36;4.30;;;2.33;;
19341;SDS011;9807;48.258;12.690;2023-07-31T15:05:02;4.63;;;2.13;;